KHRO

Boone County Airport

Harrison, Arkansas, USA

KHRO 110853Z AUTO 24004KT 10SM CLR 07/M06 A3017 RMK AO2 SLP213 T00671061 56006

Observed Flight Rules
Dec-11 @ 08:53 UTC (39 minutes ago) Visual Flight Rules
Wind Visibility Clouds
240° at 4 knots 10 miles
  • Clear skies
Temperatures Readings
Current 7°C / 45°F
Dewpoint -6°C / 21°F
Humidity 39%
Altimeter 30.17" Hg
Pressure 1021.3 hPa
Elevation 417
Observed Flight Rules
Dec-11 @ 08:53 UTC
(39 minutes ago)
VFR
Wind Visibility
240° at 4 knots 10 miles
Clouds
  • Clear skies
Temperature Dewpoint
7°C / 45°F -6°C / 21°F
Humidity Altimeter Pressure
39% 30.17" Hg 1021.3 hPa